Time;durP1;ratioP1;P1;durP2;ratioP2;P2;SDS_P1;SDS_P2;PMS_P1;PMS_P2;Temp;Humidity;BMP_temperature;BMP_pressure;BME280_temperature;BME280_humidity;BME280_pressure;Samples;Min_cycle;Max_cycle;Signal;HPM_P1;HPM_P2
2021/05/15 00:01:16;;;;;;;8.93;5.90;;;10.20;99.90;;;;;;5079304;28;20199;-73
2021/05/15 00:03:44;;;;;;;9.07;6.18;;;10.20;99.90;;;;;;5077082;28;20223;-73
2021/05/15 00:06:13;;;;;;;12.45;6.00;;;10.20;99.90;;;;;;5093733;28;20541;-74
2021/05/15 00:08:39;;;;;;;10.35;6.32;;;10.20;99.90;;;;;;5094939;28;20274;-74
2021/05/15 00:11:06;;;;;;;10.25;6.57;;;10.20;99.90;;;;;;5075441;28;20202;-75
2021/05/15 00:13:35;;;;;;;12.52;6.43;;;10.20;99.90;;;;;;5076915;28;20852;-73
2021/05/15 00:16:01;;;;;;;14.98;7.63;;;10.20;99.90;;;;;;5075166;28;20674;-74
2021/05/15 00:18:27;;;;;;;10.25;6.43;;;10.20;99.90;;;;;;5074444;28;20696;-74
2021/05/15 00:20:53;;;;;;;8.70;6.32;;;10.20;99.90;;;;;;5094051;28;20199;-74
2021/05/15 00:23:18;;;;;;;12.75;7.22;;;10.30;99.90;;;;;;5079696;28;20231;-73
2021/05/15 00:25:44;;;;;;;11.15;6.90;;;10.30;99.90;;;;;;5095458;28;20967;-74
2021/05/15 00:28:10;;;;;;;11.55;6.55;;;10.20;99.90;;;;;;5080893;28;20636;-75
2021/05/15 00:30:35;;;;;;;14.13;6.68;;;10.30;99.90;;;;;;5097439;28;20279;-74
2021/05/15 00:33:01;;;;;;;10.77;7.10;;;10.20;99.90;;;;;;5098367;28;20196;-74
2021/05/15 00:35:27;;;;;;;14.38;6.90;;;10.20;99.90;;;;;;5095507;28;20681;-74
2021/05/15 00:37:53;;;;;;;13.25;7.25;;;10.30;99.90;;;;;;5082980;28;20303;-74
2021/05/15 00:40:19;;;;;;;12.45;6.65;;;10.30;99.90;;;;;;5076275;28;20220;-74
2021/05/15 00:42:47;;;;;;;11.75;7.40;;;10.30;99.90;;;;;;5099185;28;20196;-74
2021/05/15 00:45:13;;;;;;;14.82;7.65;;;10.20;99.90;;;;;;5098198;28;20665;-74
2021/05/15 00:47:39;;;;;;;15.90;6.93;;;10.20;99.90;;;;;;5078682;28;20251;-74
2021/05/15 00:50:07;;;;;;;11.88;7.15;;;10.20;99.90;;;;;;5098802;28;20219;-74
2021/05/15 00:52:36;;;;;;;11.38;6.78;;;10.20;99.90;;;;;;5101359;28;20199;-74
2021/05/15 00:55:12;;;;;;;12.07;6.85;;;10.20;99.90;;;;;;5099286;28;20686;-74
2021/05/15 00:57:39;;;;;;;17.05;7.50;;;10.10;99.90;;;;;;5098144;28;20907;-74
2021/05/15 01:00:13;;;;;;;13.15;7.03;;;10.10;99.90;;;;;;5099567;28;20629;-74
2021/05/15 01:02:39;;;;;;;12.73;7.30;;;10.10;99.90;;;;;;5082022;22;20241;-71
2021/05/15 01:05:07;;;;;;;17.38;7.20;;;10.10;99.90;;;;;;5063063;28;20313;-71
2021/05/15 01:07:33;;;;;;;13.32;7.63;;;10.10;99.90;;;;;;5077316;28;20196;-72
2021/05/15 01:09:59;;;;;;;14.68;7.70;;;10.10;99.90;;;;;;5056130;28;20685;-72
2021/05/15 01:12:24;;;;;;;11.85;7.22;;;10.10;99.90;;;;;;5079201;28;20199;-72
2021/05/15 01:14:50;;;;;;;14.88;7.15;;;10.10;99.90;;;;;;5078684;28;20741;-72
2021/05/15 01:17:16;;;;;;;12.32;7.57;;;10.10;99.90;;;;;;5060302;28;20292;-71
2021/05/15 01:19:42;;;;;;;10.43;7.22;;;10.00;99.90;;;;;;5075911;28;20184;-73
2021/05/15 01:22:10;;;;;;;14.15;7.85;;;10.00;99.90;;;;;;5072837;28;20200;-71
2021/05/15 01:24:36;;;;;;;17.05;7.40;;;10.00;99.90;;;;;;5078895;28;20204;-72
2021/05/15 01:27:07;;;;;;;14.52;7.68;;;10.00;99.90;;;;;;5079317;28;20287;-71
2021/05/15 01:29:33;;;;;;;11.13;7.43;;;10.00;99.90;;;;;;5081248;28;20670;-71
2021/05/15 01:31:59;;;;;;;14.70;7.97;;;10.00;99.90;;;;;;5079405;28;20591;-71
2021/05/15 01:34:24;;;;;;;10.40;7.07;;;10.00;99.90;;;;;;5077817;28;20196;-72
2021/05/15 01:36:50;;;;;;;10.60;7.40;;;10.00;99.90;;;;;;5077660;28;20211;-72
2021/05/15 01:39:16;;;;;;;12.23;7.82;;;9.90;99.90;;;;;;5075911;28;20195;-70
2021/05/15 01:41:45;;;;;;;15.15;8.43;;;9.90;99.90;;;;;;5080359;28;20253;-71
2021/05/15 01:44:12;;;;;;;15.65;7.97;;;10.00;99.90;;;;;;5074776;28;20193;-71
2021/05/15 01:46:37;;;;;;;15.18;7.65;;;9.90;99.90;;;;;;5077917;28;20190;-71
2021/05/15 01:49:04;;;;;;;16.90;7.35;;;9.90;99.90;;;;;;5076148;28;20204;-71
2021/05/15 01:51:30;;;;;;;11.90;7.50;;;9.90;99.90;;;;;;5079587;28;20201;-72
2021/05/15 01:53:56;;;;;;;12.55;7.47;;;10.00;99.90;;;;;;5074901;28;20203;-73
2021/05/15 01:56:27;;;;;;;13.60;7.45;;;10.00;99.90;;;;;;5077496;28;20552;-71
2021/05/15 01:58:53;;;;;;;12.10;7.75;;;9.90;99.90;;;;;;5075677;28;20687;-74
2021/05/15 02:01:20;;;;;;;14.68;7.88;;;9.90;99.90;;;;;;5077033;28;20231;-72
2021/05/15 02:03:47;;;;;;;12.18;7.47;;;9.80;99.90;;;;;;5062215;28;20221;-73
2021/05/15 02:06:13;;;;;;;12.40;7.57;;;9.80;99.90;;;;;;5075366;28;20202;-72
2021/05/15 02:08:41;;;;;;;12.23;7.85;;;9.80;99.90;;;;;;5077066;28;20223;-71
2021/05/15 02:11:07;;;;;;;14.63;7.90;;;9.80;99.90;;;;;;5077192;28;20188;-72
2021/05/15 02:13:33;;;;;;;16.00;8.13;;;9.70;99.90;;;;;;5077017;28;20224;-72
2021/05/15 02:16:00;;;;;;;13.88;7.57;;;9.70;99.90;;;;;;5061915;28;20212;-71
2021/05/15 02:18:27;;;;;;;16.48;7.55;;;9.70;99.90;;;;;;5060360;28;20607;-73
2021/05/15 02:20:53;;;;;;;15.25;8.40;;;9.70;99.90;;;;;;5073463;28;20270;-72
2021/05/15 02:23:19;;;;;;;17.42;8.18;;;9.70;99.90;;;;;;5080842;28;20203;-71
2021/05/15 02:25:46;;;;;;;13.02;7.57;;;9.70;99.90;;;;;;5064778;28;20193;-72
2021/05/15 02:28:16;;;;;;;13.20;7.80;;;9.70;99.90;;;;;;5080677;28;20192;-71
2021/05/15 02:30:43;;;;;;;15.35;6.97;;;9.70;99.90;;;;;;5057483;28;20196;-71
2021/05/15 02:33:08;;;;;;;16.35;8.32;;;9.60;99.90;;;;;;5078256;28;20302;-72
2021/05/15 02:35:35;;;;;;;14.35;7.20;;;9.70;99.90;;;;;;5078234;28;20200;-72
2021/05/15 02:38:01;;;;;;;11.52;7.55;;;9.70;99.90;;;;;;5064240;28;20217;-71
2021/05/15 02:40:27;;;;;;;14.73;7.72;;;9.60;99.90;;;;;;5082770;28;20207;-73
2021/05/15 02:42:53;;;;;;;14.02;7.47;;;9.60;99.90;;;;;;5080282;28;20654;-71
2021/05/15 02:45:22;;;;;;;16.45;7.75;;;9.60;99.90;;;;;;5080644;28;20192;-71
2021/05/15 02:47:48;;;;;;;13.30;7.88;;;9.60;99.90;;;;;;5080959;28;20538;-71
2021/05/15 02:50:15;;;;;;;11.80;7.60;;;9.60;99.90;;;;;;5076104;28;20237;-71
2021/05/15 02:52:42;;;;;;;14.60;8.32;;;9.70;99.90;;;;;;5075118;28;20204;-71
2021/05/15 02:55:11;;;;;;;13.52;7.40;;;9.60;99.90;;;;;;5052160;28;20212;-71
2021/05/15 02:57:37;;;;;;;14.00;7.93;;;9.60;99.90;;;;;;5076723;28;20317;-71
2021/05/15 03:00:05;;;;;;;15.52;8.10;;;9.60;99.90;;;;;;5079239;28;20275;-73
2021/05/15 03:02:31;;;;;;;11.95;7.38;;;9.60;99.90;;;;;;5064519;28;20228;-71
2021/05/15 03:04:57;;;;;;;13.27;7.55;;;9.60;99.90;;;;;;5058608;28;20207;-72
2021/05/15 03:07:23;;;;;;;10.40;7.20;;;9.60;99.90;;;;;;5078517;28;20531;-72
2021/05/15 03:09:49;;;;;;;20.25;7.38;;;9.60;99.90;;;;;;5076802;28;20200;-72
2021/05/15 03:12:15;;;;;;;11.80;7.65;;;9.60;99.90;;;;;;5077023;28;20204;-72
2021/05/15 03:14:42;;;;;;;13.40;7.82;;;9.60;99.90;;;;;;5062872;28;20311;-74
2021/05/15 03:17:09;;;;;;;16.58;7.40;;;9.60;99.90;;;;;;5080478;28;20206;-72
2021/05/15 03:19:35;;;;;;;11.60;7.43;;;9.70;99.90;;;;;;5073932;28;20739;-72
2021/05/15 03:22:00;;;;;;;17.90;7.75;;;9.70;99.90;;;;;;5081110;28;20192;-73
2021/05/15 03:24:26;;;;;;;13.35;7.55;;;9.70;99.90;;;;;;5078896;28;20224;-73
2021/05/15 03:26:52;;;;;;;13.32;7.68;;;9.70;99.90;;;;;;5078723;28;20199;-72
2021/05/15 03:29:17;;;;;;;10.10;7.30;;;9.70;99.90;;;;;;5077982;28;20204;-71
2021/05/15 03:31:43;;;;;;;11.73;7.18;;;9.70;99.90;;;;;;5076232;28;20261;-71
2021/05/15 03:34:09;;;;;;;10.50;6.85;;;9.70;99.90;;;;;;5058155;28;20644;-72
2021/05/15 03:36:35;;;;;;;12.52;7.32;;;9.70;99.90;;;;;;5062667;28;20260;-73
2021/05/15 03:39:03;;;;;;;13.57;7.13;;;9.70;99.90;;;;;;5060839;28;20708;-70
2021/05/15 03:41:28;;;;;;;11.68;7.32;;;9.70;99.90;;;;;;5079059;28;20184;-72
2021/05/15 03:43:54;;;;;;;11.07;7.20;;;9.70;99.90;;;;;;5059693;28;20996;-72
2021/05/15 03:46:20;;;;;;;13.55;7.18;;;9.70;99.90;;;;;;5060573;28;20299;-72
2021/05/15 03:48:45;;;;;;;15.45;7.38;;;9.70;99.90;;;;;;5079128;28;20204;-72
2021/05/15 03:51:11;;;;;;;10.80;7.68;;;9.70;99.90;;;;;;5078468;28;20249;-71
2021/05/15 03:53:39;;;;;;;11.05;7.15;;;9.80;99.90;;;;;;5080427;28;21040;-72
2021/05/15 03:56:05;;;;;;;11.93;7.43;;;9.70;99.90;;;;;;5076885;28;20211;-72
2021/05/15 03:58:30;;;;;;;15.20;7.45;;;9.80;99.90;;;;;;5080577;28;20196;-70
2021/05/15 04:00:56;;;;;;;12.73;7.18;;;9.80;99.90;;;;;;5078735;28;20195;-73
2021/05/15 04:03:22;;;;;;;12.32;7.20;;;9.70;99.90;;;;;;5052960;28;20228;-71
2021/05/15 04:05:48;;;;;;;12.75;7.45;;;9.70;99.90;;;;;;5052348;28;20191;-71
2021/05/15 04:08:13;;;;;;;9.98;6.90;;;9.70;99.90;;;;;;5054449;28;20224;-70
2021/05/15 04:10:39;;;;;;;12.32;7.15;;;9.60;99.90;;;;;;5054191;28;20673;-71
2021/05/15 04:15:59;;;;;;;12.15;6.93;;;9.50;99.90;;;;;;5050421;28;20197;-72
2021/05/15 04:18:28;;;;;;;11.75;6.63;;;9.50;99.90;;;;;;5052176;28;20239;-71
2021/05/15 04:20:54;;;;;;;13.60;6.85;;;9.50;99.90;;;;;;5053950;28;20698;-72
2021/05/15 04:23:21;;;;;;;12.35;6.68;;;9.50;99.90;;;;;;5053635;28;20197;-73
2021/05/15 04:25:47;;;;;;;11.73;7.18;;;9.50;99.90;;;;;;5053570;28;20193;-71
2021/05/15 04:28:14;;;;;;;10.65;6.05;;;9.60;99.90;;;;;;5055738;28;20564;-70
2021/05/15 04:30:40;;;;;;;10.40;6.68;;;9.60;99.90;;;;;;5035897;28;20774;-71
2021/05/15 04:33:06;;;;;;;11.63;7.05;;;9.60;99.90;;;;;;5052796;28;20679;-72
2021/05/15 04:35:34;;;;;;;10.90;6.60;;;9.70;99.90;;;;;;5048668;28;20271;-72
2021/05/15 04:38:02;;;;;;;11.88;6.88;;;9.70;99.90;;;;;;5050310;28;20224;-73
2021/05/15 04:40:29;;;;;;;13.85;7.50;;;9.70;99.90;;;;;;5049757;28;20197;-71
2021/05/15 04:42:55;;;;;;;11.27;6.80;;;9.70;99.90;;;;;;5053114;28;20279;-71
2021/05/15 04:45:21;;;;;;;9.38;6.40;;;9.70;99.90;;;;;;5051049;28;20205;-73
2021/05/15 04:47:47;;;;;;;11.45;6.32;;;9.70;99.90;;;;;;5052022;28;20212;-73
2021/05/15 04:50:12;;;;;;;11.00;6.45;;;9.80;99.90;;;;;;5047975;28;20220;-71
2021/05/15 04:52:38;;;;;;;9.68;6.38;;;9.80;99.90;;;;;;5049385;28;21251;-72
2021/05/15 04:55:05;;;;;;;11.90;6.68;;;9.80;99.90;;;;;;5049246;28;20785;-71
2021/05/15 04:57:31;;;;;;;10.05;6.47;;;9.80;99.90;;;;;;5051068;28;20835;-72
2021/05/15 04:59:57;;;;;;;10.00;6.47;;;9.80;99.90;;;;;;5053187;28;20197;-72
2021/05/15 05:02:22;;;;;;;9.73;6.30;;;9.80;99.90;;;;;;5041007;28;20805;-73
2021/05/15 05:04:48;;;;;;;10.75;6.80;;;9.80;99.90;;;;;;5054077;28;20286;-71
2021/05/15 05:07:14;;;;;;;8.85;6.32;;;9.70;99.90;;;;;;5053696;28;20207;-70
2021/05/15 05:09:40;;;;;;;10.73;5.93;;;9.80;99.90;;;;;;5069194;28;20200;-71
2021/05/15 05:12:06;;;;;;;11.85;6.45;;;9.80;99.90;;;;;;5069637;28;21049;-71
2021/05/15 05:14:32;;;;;;;11.95;6.28;;;9.80;99.90;;;;;;5052680;28;20564;-71
2021/05/15 05:16:58;;;;;;;10.38;6.72;;;9.70;99.90;;;;;;5062840;28;20216;-71
2021/05/15 05:19:24;;;;;;;12.27;7.05;;;9.70;99.90;;;;;;5073810;28;20665;-71
2021/05/15 05:21:52;;;;;;;10.35;6.72;;;9.70;99.90;;;;;;5052209;28;20189;-70
2021/05/15 05:24:19;;;;;;;19.40;6.60;;;9.70;99.90;;;;;;5054917;28;20257;-70
2021/05/15 05:26:45;;;;;;;13.75;7.43;;;9.70;99.90;;;;;;5074444;28;20626;-70
2021/05/15 05:29:11;;;;;;;12.70;7.40;;;9.70;99.90;;;;;;5070728;28;20196;-71
2021/05/15 05:31:41;;;;;;;9.90;6.93;;;9.60;99.90;;;;;;5068711;28;20600;-73
2021/05/15 05:34:08;;;;;;;13.05;7.30;;;9.60;99.90;;;;;;5072236;28;20690;-72
2021/05/15 05:36:35;;;;;;;10.35;6.82;;;9.60;99.90;;;;;;5056519;28;20208;-71
2021/05/15 05:39:02;;;;;;;11.60;7.10;;;9.70;99.90;;;;;;5060562;28;20779;-71
2021/05/15 05:41:27;;;;;;;9.57;6.68;;;9.80;99.90;;;;;;5078060;28;20274;-71
2021/05/15 05:43:53;;;;;;;13.00;7.10;;;9.80;99.90;;;;;;5079253;28;20694;-70
2021/05/15 05:46:20;;;;;;;10.80;6.05;;;9.90;99.90;;;;;;5081507;28;21272;-71
2021/05/15 05:48:49;;;;;;;8.38;5.50;;;9.90;99.90;;;;;;5077509;28;20257;-70
2021/05/15 05:51:15;;;;;;;7.60;5.00;;;9.90;99.90;;;;;;5079041;28;20200;-73
2021/05/15 05:53:41;;;;;;;9.07;5.10;;;9.80;99.90;;;;;;5076439;28;20297;-72
2021/05/15 05:56:06;;;;;;;6.32;4.55;;;9.80;99.90;;;;;;5078842;28;20226;-71
2021/05/15 05:58:32;;;;;;;7.13;4.70;;;9.80;99.90;;;;;;5081189;28;20191;-70
2021/05/15 06:00:58;;;;;;;7.28;4.95;;;9.80;99.90;;;;;;5080188;28;20211;-71
2021/05/15 06:03:24;;;;;;;7.55;4.50;;;9.80;99.90;;;;;;5084667;28;20292;-70
2021/05/15 06:05:50;;;;;;;7.07;4.60;;;9.80;99.90;;;;;;5063768;28;20646;-71
2021/05/15 06:08:16;;;;;;;7.07;4.85;;;9.80;99.90;;;;;;5088135;28;20200;-70
2021/05/15 06:10:42;;;;;;;7.32;4.65;;;9.70;99.90;;;;;;5085015;28;20196;-72
2021/05/15 06:13:09;;;;;;;11.82;5.32;;;9.70;99.90;;;;;;5084574;28;20669;-71
2021/05/15 06:15:36;;;;;;;8.43;4.68;;;9.70;99.90;;;;;;5082712;28;20207;-70
2021/05/15 06:18:03;;;;;;;7.22;4.60;;;9.70;99.90;;;;;;5064998;28;20242;-73
2021/05/15 06:20:29;;;;;;;6.97;5.05;;;9.70;99.90;;;;;;5078794;28;20249;-71
2021/05/15 06:22:56;;;;;;;6.38;4.38;;;9.70;99.90;;;;;;5078252;28;20200;-71
2021/05/15 06:25:22;;;;;;;5.30;3.97;;;9.70;99.90;;;;;;5064449;28;20192;-72
2021/05/15 06:27:47;;;;;;;6.38;4.10;;;9.70;99.90;;;;;;5061128;28;20207;-71
2021/05/15 06:30:14;;;;;;;6.30;3.97;;;9.60;99.90;;;;;;5080877;28;20227;-70
2021/05/15 06:32:40;;;;;;;5.47;3.90;;;9.60;99.90;;;;;;5077953;28;20250;-71
2021/05/15 06:35:06;;;;;;;7.88;3.92;;;9.60;99.90;;;;;;5078648;28;20614;-72
2021/05/15 06:37:32;;;;;;;6.78;3.95;;;9.60;99.90;;;;;;5078664;28;20237;-72
2021/05/15 06:39:57;;;;;;;5.88;4.20;;;9.50;99.90;;;;;;5086958;28;20248;-71
2021/05/15 06:42:23;;;;;;;7.35;4.25;;;9.60;99.90;;;;;;5069810;28;20208;-73
2021/05/15 06:44:49;;;;;;;6.88;4.43;;;9.60;99.90;;;;;;5070814;28;20199;-70
2021/05/15 06:47:17;;;;;;;6.38;3.75;;;9.80;99.90;;;;;;5079256;28;20200;-71
2021/05/15 06:49:43;;;;;;;5.18;3.75;;;9.80;99.90;;;;;;5081255;28;20196;-70
2021/05/15 06:52:10;;;;;;;5.40;3.78;;;9.90;99.90;;;;;;5083505;28;20278;-71
2021/05/15 06:54:35;;;;;;;5.40;3.58;;;9.80;99.90;;;;;;5075711;28;20674;-71
2021/05/15 06:57:01;;;;;;;5.18;3.70;;;9.90;99.90;;;;;;5077542;28;20204;-70
2021/05/15 06:59:27;;;;;;;4.63;3.25;;;9.80;99.90;;;;;;5082301;28;20188;-71
2021/05/15 07:01:53;;;;;;;4.90;3.33;;;9.80;99.90;;;;;;5065284;28;20559;-70
2021/05/15 07:04:19;;;;;;;3.90;3.05;;;9.80;99.90;;;;;;5079125;28;20217;-72
2021/05/15 07:06:45;;;;;;;4.85;3.40;;;9.80;99.90;;;;;;5062466;28;20662;-70
2021/05/15 07:09:11;;;;;;;3.30;2.75;;;9.80;99.90;;;;;;5087003;28;20262;-72
2021/05/15 07:11:36;;;;;;;5.55;2.90;;;9.90;99.90;;;;;;5084802;28;20199;-70
2021/05/15 07:14:03;;;;;;;7.20;3.28;;;9.90;99.90;;;;;;5082135;28;20203;-70
2021/05/15 07:16:28;;;;;;;5.18;3.75;;;9.90;99.90;;;;;;5080062;28;20200;-70
2021/05/15 07:18:54;;;;;;;5.25;3.17;;;9.90;99.90;;;;;;5076433;28;20187;-70
2021/05/15 07:21:20;;;;;;;4.90;3.05;;;10.00;99.90;;;;;;5074813;28;20196;-71
2021/05/15 07:23:45;;;;;;;3.08;2.30;;;10.00;99.90;;;;;;5085118;28;20253;-71
2021/05/15 07:26:11;;;;;;;4.70;2.30;;;9.90;99.90;;;;;;5084392;28;20219;-70
2021/05/15 07:28:38;;;;;;;2.65;2.30;;;9.90;99.90;;;;;;5086004;28;20195;-71
2021/05/15 07:31:04;;;;;;;3.58;2.20;;;9.90;99.90;;;;;;5081852;28;20219;-69
2021/05/15 07:33:29;;;;;;;3.25;2.00;;;10.00;99.90;;;;;;5077252;28;20189;-71
2021/05/15 07:35:56;;;;;;;4.40;2.33;;;10.00;99.90;;;;;;5061323;28;20192;-72
2021/05/15 07:38:22;;;;;;;3.35;2.47;;;10.00;99.90;;;;;;5064684;28;20207;-71
2021/05/15 07:40:51;;;;;;;5.70;2.00;;;10.00;99.90;;;;;;5066092;28;20693;-71
2021/05/15 07:43:23;;;;;;;3.33;2.30;;;10.00;99.90;;;;;;5064978;28;20204;-73
2021/05/15 07:45:50;;;;;;;4.53;2.13;;;10.10;99.90;;;;;;5080522;28;20555;-71
2021/05/15 07:48:15;;;;;;;3.00;2.20;;;10.00;99.90;;;;;;5076440;28;20259;-72
2021/05/15 07:50:42;;;;;;;2.92;2.10;;;9.90;99.90;;;;;;5082308;28;20221;-70
2021/05/15 07:53:07;;;;;;;3.65;2.00;;;9.80;99.90;;;;;;5080334;28;20571;-70
2021/05/15 07:55:33;;;;;;;3.53;2.22;;;9.80;99.90;;;;;;5062220;28;20203;-70
2021/05/15 07:57:58;;;;;;;3.13;2.40;;;9.80;99.90;;;;;;5083333;28;20215;-70
2021/05/15 08:00:24;;;;;;;4.25;1.92;;;9.80;99.90;;;;;;5082643;28;20925;-70
2021/05/15 08:02:50;;;;;;;2.20;1.92;;;9.80;99.90;;;;;;5052429;28;20706;-70
2021/05/15 08:05:15;;;;;;;8.27;3.60;;;9.80;99.90;;;;;;5065063;28;20199;-71
2021/05/15 08:07:41;;;;;;;6.07;2.95;;;9.90;99.90;;;;;;5082100;28;20196;-71
2021/05/15 08:10:08;;;;;;;10.10;4.95;;;9.90;99.90;;;;;;5062339;28;20295;-70
2021/05/15 08:12:36;;;;;;;7.72;3.85;;;9.90;99.90;;;;;;5079110;28;20193;-70
2021/05/15 08:15:02;;;;;;;3.13;2.25;;;10.00;99.90;;;;;;5063362;28;20283;-70
2021/05/15 08:17:28;;;;;;;6.20;3.80;;;10.10;99.90;;;;;;5085569;28;20196;-70
2021/05/15 08:19:54;;;;;;;3.70;2.70;;;10.10;99.90;;;;;;5075789;28;20598;-70
2021/05/15 08:22:20;;;;;;;3.50;2.33;;;10.10;99.90;;;;;;5085653;28;20184;-70
2021/05/15 08:24:45;;;;;;;3.33;2.33;;;10.20;99.90;;;;;;5079086;28;20242;-72
2021/05/15 08:27:11;;;;;;;3.20;2.28;;;10.30;99.90;;;;;;5068117;28;20200;-71
2021/05/15 08:29:37;;;;;;;5.38;2.78;;;10.50;99.90;;;;;;5061762;28;20192;-70
2021/05/15 08:32:04;;;;;;;2.97;2.50;;;10.60;99.90;;;;;;5085004;28;20192;-70
2021/05/15 08:34:30;;;;;;;3.35;2.70;;;10.60;99.90;;;;;;5061752;28;20226;-71
2021/05/15 08:36:56;;;;;;;2.90;2.55;;;10.60;99.90;;;;;;5073877;28;20212;-71
2021/05/15 08:39:22;;;;;;;2.90;2.17;;;10.60;99.90;;;;;;5074623;28;20282;-71
2021/05/15 08:41:47;;;;;;;3.63;2.80;;;10.60;99.90;;;;;;5058597;28;20204;-71
2021/05/15 08:44:14;;;;;;;3.15;2.40;;;10.60;99.90;;;;;;5077903;28;20220;-71
2021/05/15 08:46:44;;;;;;;3.10;2.30;;;10.50;99.90;;;;;;5074049;28;20196;-70
2021/05/15 08:49:14;;;;;;;3.05;2.50;;;10.40;99.90;;;;;;5074824;28;20192;-71
2021/05/15 08:51:41;;;;;;;4.20;3.10;;;10.50;99.90;;;;;;5077552;28;20560;-70
2021/05/15 08:54:08;;;;;;;4.68;2.78;;;10.50;99.90;;;;;;5076641;28;20189;-70
2021/05/15 08:56:33;;;;;;;3.63;2.53;;;10.40;99.90;;;;;;5077643;28;20240;-70
2021/05/15 08:58:59;;;;;;;3.25;2.50;;;10.30;99.90;;;;;;5075792;28;20192;-71
2021/05/15 09:01:25;;;;;;;3.42;2.60;;;10.40;99.90;;;;;;5075463;28;20180;-71
2021/05/15 09:03:51;;;;;;;3.85;2.65;;;10.50;99.90;;;;;;5075713;28;20228;-74
2021/05/15 09:06:17;;;;;;;6.72;2.63;;;10.70;99.90;;;;;;5081607;28;20230;-71
2021/05/15 09:08:50;;;;;;;4.10;2.80;;;10.90;99.90;;;;;;5079343;28;20243;-72
2021/05/15 09:11:16;;;;;;;5.82;2.70;;;11.10;99.90;;;;;;5076538;28;20198;-70
2021/05/15 09:13:53;;;;;;;3.50;2.80;;;11.30;99.90;;;;;;5080786;28;20192;-71
2021/05/15 09:16:19;;;;;;;4.15;2.80;;;11.40;99.90;;;;;;5078803;28;20207;-71
2021/05/15 09:18:45;;;;;;;6.55;3.25;;;11.40;99.90;;;;;;5070479;28;20287;-73
2021/05/15 09:21:25;;;;;;;4.85;2.90;;;11.30;99.90;;;;;;5082347;28;20741;-70
2021/05/15 09:23:51;;;;;;;5.57;3.60;;;11.20;99.90;;;;;;5082404;28;20204;-70
2021/05/15 09:26:18;;;;;;;4.10;3.03;;;11.20;99.90;;;;;;5059595;28;20587;-74
2021/05/15 09:28:58;;;;;;;6.45;3.67;;;11.10;99.90;;;;;;5053357;28;20199;-72
2021/05/15 09:31:26;;;;;;;4.38;3.17;;;11.10;99.90;;;;;;5064676;28;20554;-74
2021/05/15 09:33:59;;;;;;;6.10;2.65;;;11.10;99.90;;;;;;5082729;28;20196;-72
2021/05/15 09:36:36;;;;;;;3.83;2.30;;;11.20;99.90;;;;;;5082376;28;20200;-70
2021/05/15 09:39:15;;;;;;;2.70;2.22;;;11.20;99.90;;;;;;5079533;28;20195;-71
2021/05/15 09:41:44;;;;;;;3.47;2.47;;;11.10;99.90;;;;;;5081381;28;20200;-71
2021/05/15 09:44:12;;;;;;;5.75;2.80;;;11.10;99.90;;;;;;5067818;28;20555;-72
2021/05/15 09:46:41;;;;;;;3.75;2.35;;;11.00;99.90;;;;;;5082447;28;20262;-70
2021/05/15 09:49:08;;;;;;;3.85;2.60;;;10.90;99.90;;;;;;5082085;28;20304;-72
2021/05/15 09:51:34;;;;;;;3.45;2.60;;;10.90;99.90;;;;;;5077651;28;20196;-73
2021/05/15 09:54:16;;;;;;;5.53;2.70;;;10.80;99.90;;;;;;5081424;28;20192;-72
2021/05/15 09:56:42;;;;;;;5.93;2.63;;;10.60;99.90;;;;;;5062736;28;20938;-71
2021/05/15 09:59:10;;;;;;;3.80;2.90;;;10.40;99.90;;;;;;5079287;28;20617;-72
2021/05/15 10:01:44;;;;;;;3.10;1.95;;;10.40;99.90;;;;;;5061527;28;20678;-71
2021/05/15 10:04:10;;;;;;;3.33;2.30;;;10.40;99.90;;;;;;5078579;28;20590;-72
2021/05/15 10:06:36;;;;;;;3.35;2.17;;;10.50;99.90;;;;;;5064605;28;20200;-72
2021/05/15 10:09:03;;;;;;;2.92;2.38;;;10.60;99.90;;;;;;5082977;28;20575;-73
2021/05/15 10:11:29;;;;;;;3.20;2.20;;;10.60;99.90;;;;;;5081074;28;20192;-72
2021/05/15 10:13:56;;;;;;;2.80;2.30;;;10.50;99.90;;;;;;5059175;28;20597;-71
2021/05/15 10:16:21;;;;;;;2.97;2.20;;;10.50;99.90;;;;;;5076859;28;20197;-71
2021/05/15 10:18:48;;;;;;;2.92;2.10;;;10.60;99.90;;;;;;5077114;28;20246;-72
2021/05/15 10:21:14;;;;;;;2.67;2.15;;;10.70;99.90;;;;;;5058924;28;20219;-71
2021/05/15 10:23:44;;;;;;;3.28;2.28;;;10.60;99.90;;;;;;5085509;28;20677;-72
2021/05/15 10:26:17;;;;;;;2.60;1.88;;;10.70;99.90;;;;;;5077386;28;20228;-70
2021/05/15 10:28:45;;;;;;;2.67;2.05;;;10.80;99.90;;;;;;5080313;28;20629;-72
2021/05/15 10:31:15;;;;;;;3.33;2.13;;;10.90;99.90;;;;;;5087918;28;20942;-72
2021/05/15 10:33:46;;;;;;;5.15;2.15;;;11.00;99.90;;;;;;5066912;28;20200;-71
2021/05/15 10:36:20;;;;;;;2.42;1.80;;;11.10;99.90;;;;;;5080859;28;20200;-71
2021/05/15 10:38:48;;;;;;;2.28;1.92;;;11.20;99.90;;;;;;5085756;28;20204;-71
2021/05/15 10:41:25;;;;;;;2.13;1.85;;;11.30;99.90;;;;;;5082965;28;20188;-72
2021/05/15 10:43:52;;;;;;;5.80;2.13;;;11.50;99.90;;;;;;5080205;28;20561;-71
2021/05/15 10:46:28;;;;;;;2.40;1.70;;;11.50;99.90;;;;;;5077199;28;20216;-73
2021/05/15 10:48:55;;;;;;;3.15;2.00;;;11.40;99.90;;;;;;5075117;28;20664;-72
2021/05/15 10:52:09;;;;;;;2.25;1.77;;;11.40;99.90;;;;;;5077807;28;20238;-71
2021/05/15 10:54:39;;;;;;;3.22;1.80;;;11.30;99.90;;;;;;5071787;28;20207;-71
2021/05/15 10:57:06;;;;;;;2.58;2.13;;;11.00;99.90;;;;;;5076412;28;20220;-72
2021/05/15 10:59:32;;;;;;;2.50;1.92;;;10.90;99.90;;;;;;5074943;28;20200;-71
2021/05/15 11:02:00;;;;;;;2.78;2.10;;;10.90;99.90;;;;;;5083372;28;20219;-73
2021/05/15 11:04:31;;;;;;;3.38;2.10;;;10.80;99.90;;;;;;5065570;28;20375;-71
2021/05/15 11:06:58;;;;;;;4.47;1.98;;;10.80;99.90;;;;;;5062981;28;20192;-71
2021/05/15 11:09:28;;;;;;;2.72;2.15;;;10.70;99.90;;;;;;5076681;28;20209;-70
2021/05/15 11:12:03;;;;;;;2.00;1.77;;;10.80;99.90;;;;;;5060479;28;20188;-70
2021/05/15 11:14:30;;;;;;;2.05;1.85;;;10.80;99.90;;;;;;5071410;28;20627;-72
2021/05/15 11:17:28;;;;;;;2.15;1.80;;;10.90;99.90;;;;;;5054381;28;20223;-72
2021/05/15 11:20:04;;;;;;;2.10;1.90;;;11.00;99.90;;;;;;5064595;28;20382;-72
2021/05/15 11:22:47;;;;;;;2.40;2.20;;;10.80;99.90;;;;;;5071750;28;20191;-72
2021/05/15 11:25:13;;;;;;;2.53;2.13;;;10.70;99.90;;;;;;5075473;28;20196;-70
2021/05/15 11:27:51;;;;;;;4.35;2.47;;;10.80;99.90;;;;;;5074746;28;20311;-70
2021/05/15 11:30:22;;;;;;;2.42;2.20;;;10.70;99.90;;;;;;5073223;28;20184;-71
2021/05/15 11:32:55;;;;;;;3.05;2.20;;;10.90;99.90;;;;;;5057065;28;20192;-71
2021/05/15 11:35:21;;;;;;;2.63;2.20;;;11.00;99.90;;;;;;5065114;28;20230;-71
2021/05/15 11:37:47;;;;;;;3.08;2.40;;;10.90;99.90;;;;;;5077285;28;20515;-72
2021/05/15 11:40:14;;;;;;;4.13;2.30;;;10.90;99.90;;;;;;5077240;28;20577;-70
2021/05/15 11:42:40;;;;;;;3.45;2.50;;;11.00;99.90;;;;;;5075333;28;20609;-70
2021/05/15 11:45:06;;;;;;;2.95;2.35;;;10.90;99.90;;;;;;5076704;28;20189;-70
2021/05/15 11:47:32;;;;;;;2.95;2.63;;;10.90;99.90;;;;;;5065479;28;20200;-71
2021/05/15 11:50:00;;;;;;;3.53;2.30;;;11.00;99.90;;;;;;5075808;28;20193;-70
2021/05/15 11:52:34;;;;;;;3.60;2.30;;;11.10;99.90;;;;;;5075893;28;20204;-71
2021/05/15 11:55:00;;;;;;;2.53;2.10;;;11.10;99.90;;;;;;5064077;28;20565;-71
2021/05/15 11:57:30;;;;;;;5.13;2.70;;;11.10;99.90;;;;;;5071294;28;20243;-71
2021/05/15 12:00:14;;;;;;;3.03;2.50;;;11.20;99.90;;;;;;5072673;28;20205;-72
2021/05/15 12:02:46;;;;;;;2.83;2.42;;;11.00;99.90;;;;;;5058024;28;20667;-71
2021/05/15 12:05:17;;;;;;;3.20;2.70;;;11.10;99.90;;;;;;5058190;28;20658;-72
2021/05/15 12:07:48;;;;;;;3.53;2.90;;;11.10;99.90;;;;;;5057702;28;20193;-71
2021/05/15 12:10:23;;;;;;;3.53;2.90;;;11.20;99.90;;;;;;5044647;28;20703;-71
2021/05/15 12:13:00;;;;;;;3.97;3.13;;;11.00;99.90;;;;;;5058078;28;20493;-70
2021/05/15 12:15:30;;;;;;;3.92;3.05;;;11.20;99.90;;;;;;5052678;28;20196;-71
2021/05/15 12:17:58;;;;;;;3.35;2.58;;;11.60;99.90;;;;;;5056430;28;20205;-71
2021/05/15 12:20:39;;;;;;;5.70;2.75;;;12.00;99.90;;;;;;5058564;28;20197;-71
2021/05/15 12:23:21;;;;;;;4.38;2.70;;;12.20;99.90;;;;;;5038458;28;20201;-70
2021/05/15 12:26:00;;;;;;;3.33;2.55;;;12.60;99.90;;;;;;5050675;28;20706;-72
2021/05/15 12:28:40;;;;;;;3.17;2.40;;;12.80;99.90;;;;;;5050904;28;20238;-72
2021/05/15 12:31:06;;;;;;;2.80;2.33;;;12.90;99.90;;;;;;5057588;28;20207;-71
2021/05/15 12:33:32;;;;;;;3.08;2.65;;;13.30;99.90;;;;;;5055815;28;20194;-71
2021/05/15 12:36:01;;;;;;;2.80;2.50;;;13.50;99.90;;;;;;5042690;28;20252;-73
2021/05/15 12:38:29;;;;;;;3.35;2.50;;;13.60;99.90;;;;;;5054912;28;20201;-73
2021/05/15 12:41:09;;;;;;;4.78;2.63;;;13.60;99.90;;;;;;5037843;28;20214;-72
2021/05/15 12:43:38;;;;;;;3.17;2.40;;;13.50;99.90;;;;;;5055121;28;20196;-70
2021/05/15 12:46:12;;;;;;;3.30;2.45;;;13.30;99.90;;;;;;5060286;28;20685;-72
2021/05/15 12:48:40;;;;;;;3.38;2.67;;;13.10;99.90;;;;;;5062367;28;20266;-71
2021/05/15 12:51:15;;;;;;;2.97;2.33;;;12.80;99.90;;;;;;5065306;28;20200;-71
2021/05/15 12:53:41;;;;;;;3.53;2.22;;;12.60;99.90;;;;;;5042238;28;20274;-71